Time;durP1;ratioP1;P1;durP2;ratioP2;P2;SDS_P1;SDS_P2;PMS_P1;PMS_P2;Temp;Humidity;BMP_temperature;BMP_pressure;BME280_temperature;BME280_humidity;BME280_pressure;Samples;Min_cycle;Max_cycle;Signal;HPM_P1;HPM_P2
2024/02/15 00:04:21;;;;;;;45.10;27.60;;;;;;;7.39;100.00;100875.69;213404;1289;140243;-87
2024/02/15 00:09:22;;;;;;;53.00;29.60;;;;;;;7.39;100.00;100874.36;213855;1285;139601;-88
2024/02/15 00:14:22;;;;;;;50.20;27.00;;;;;;;7.40;100.00;100875.04;212884;1290;140915;-88
2024/02/15 00:19:23;;;;;;;42.90;27.00;;;;;;;7.41;100.00;100877.31;213267;1290;139299;-88
2024/02/15 00:24:24;;;;;;;45.30;27.20;;;;;;;7.42;100.00;100877.98;213684;1290;140008;-87
2024/02/15 00:29:26;;;;;;;46.20;26.20;;;;;;;7.42;100.00;100879.92;213914;1286;139256;-88
2024/02/15 00:34:26;;;;;;;47.90;27.30;;;;;;;7.43;100.00;100883.79;213468;1286;140119;-88
2024/02/15 00:39:27;;;;;;;43.40;27.10;;;;;;;7.41;100.00;100887.73;213923;1291;139589;-88
2024/02/15 00:44:27;;;;;;;45.60;26.30;;;;;;;7.42;100.00;100886.34;213563;1285;140988;-88
2024/02/15 00:49:28;;;;;;;39.60;24.10;;;;;;;7.42;100.00;100884.94;214050;1285;139000;-91
2024/02/15 00:54:28;;;;;;;44.00;25.20;;;;;;;7.43;100.00;100881.83;213850;1285;140213;-92
2024/02/15 00:59:28;;;;;;;38.60;24.00;;;;;;;7.43;100.00;100879.24;214187;1291;138699;-92
2024/02/15 01:04:29;;;;;;;43.40;24.10;;;;;;;7.44;100.00;100879.38;213042;1290;139877;-90
2024/02/15 01:09:29;;;;;;;38.40;23.00;;;;;;;7.46;100.00;100873.01;214086;1290;138916;-90
2024/02/15 01:14:30;;;;;;;38.50;23.60;;;;;;;7.46;100.00;100868.01;213158;1292;140594;-89
2024/02/15 01:19:31;;;;;;;38.90;23.40;;;;;;;7.47;100.00;100871.23;213286;1290;139055;-89
2024/02/15 01:24:32;;;;;;;35.00;22.00;;;;;;;7.47;100.00;100869.73;214060;1290;140244;-90
2024/02/15 01:29:33;;;;;;;42.10;23.60;;;;;;;7.45;100.00;100869.05;213600;1290;139277;-90
2024/02/15 01:34:34;;;;;;;40.00;21.30;;;;;;;7.45;100.00;100865.45;213091;1289;140002;-90
2024/02/15 01:39:34;;;;;;;35.40;21.10;;;;;;;7.43;100.00;100859.55;213594;1286;139317;-89
2024/02/15 01:44:36;;;;;;;42.00;24.10;;;;;;;7.42;100.00;100858.57;213190;1286;140095;-90
2024/02/15 01:49:37;;;;;;;36.30;22.20;;;;;;;7.43;100.00;100854.44;214186;1286;139592;-89
2024/02/15 01:54:38;;;;;;;38.80;20.70;;;;;;;7.43;100.00;100850.70;213593;1289;140871;-88
2024/02/15 01:59:39;;;;;;;37.60;21.60;;;;;;;7.44;100.00;100843.67;213915;1288;139129;-89
2024/02/15 02:04:40;;;;;;;41.50;21.80;;;;;;;7.45;100.00;100841.03;213473;1292;140137;-89
2024/02/15 02:09:41;;;;;;;39.10;21.30;;;;;;;7.43;100.00;100840.38;214032;1289;138845;-88
2024/02/15 02:14:42;;;;;;;36.00;22.40;;;;;;;7.43;100.00;100840.38;213485;1286;139940;-88
2024/02/15 02:19:43;;;;;;;36.60;20.30;;;;;;;7.46;100.00;100835.05;213936;1286;139436;-88
2024/02/15 02:24:55;;;;;;;36.60;20.00;;;;;;;7.47;100.00;100837.65;214856;1285;140317;-89
2024/02/15 02:29:56;;;;;;;36.00;21.60;;;;;;;7.46;100.00;100839.11;213816;1286;140074;-85
2024/02/15 02:34:57;;;;;;;46.90;22.50;;;;;;;7.47;100.00;100837.35;213029;1291;140687;-89
2024/02/15 02:39:57;;;;;;;34.50;21.30;;;;;;;7.46;100.00;100838.05;212993;1289;139758;-89
2024/02/15 02:44:58;;;;;;;30.20;18.70;;;;;;;7.48;100.00;100831.58;213622;1286;138927;-90
2024/02/15 02:49:58;;;;;;;35.30;20.60;;;;;;;7.48;100.00;100836.06;213439;1288;140404;-89
2024/02/15 02:54:59;;;;;;;37.80;20.10;;;;;;;7.49;100.00;100834.36;214010;1289;139292;-88
2024/02/15 02:59:59;;;;;;;33.80;18.80;;;;;;;7.50;100.00;100831.57;213525;1289;140130;-89
2024/02/15 03:05:02;;;;;;;33.40;19.70;;;;;;;7.51;100.00;100834.52;214096;1289;138706;-90
2024/02/15 03:10:07;;;;;;;33.70;19.90;;;;;;;7.52;100.00;100831.86;213531;1285;161955;-89
2024/02/15 03:15:10;;;;;;;31.60;18.40;;;;;;;7.51;100.00;100825.66;214054;1287;139556;-89
2024/02/15 03:20:21;;;;;;;40.90;22.90;;;;;;;7.50;100.00;100827.99;213430;1287;140103;-88
2024/02/15 03:25:25;;;;;;;34.30;20.50;;;;;;;7.53;100.00;100831.82;214058;1290;139007;-90
2024/02/15 03:30:26;;;;;;;27.40;17.80;;;;;;;7.54;100.00;100832.56;214597;1289;140011;-90
2024/02/15 03:35:31;;;;;;;29.90;19.70;;;;;;;7.56;100.00;100842.79;213998;1289;138675;-89
2024/02/15 03:40:32;;;;;;;29.40;18.60;;;;;;;7.58;100.00;100838.86;213512;1287;140173;-90
2024/02/15 03:45:33;;;;;;;35.80;19.30;;;;;;;7.58;100.00;100842.55;213980;1286;138836;-90
2024/02/15 03:50:33;;;;;;;30.90;17.30;;;;;;;7.60;100.00;100842.59;213542;1289;140201;-89
2024/02/15 03:55:35;;;;;;;30.60;19.10;;;;;;;7.61;100.00;100843.25;213635;1286;139461;-90
2024/02/15 04:00:35;;;;;;;31.20;20.30;;;;;;;7.62;100.00;100840.99;213658;1288;140176;-91
2024/02/15 04:05:36;;;;;;;30.80;19.10;;;;;;;7.63;100.00;100843.05;213486;1287;138827;-90
2024/02/15 04:10:36;;;;;;;31.20;20.40;;;;;;;7.65;100.00;100843.99;212927;1290;140538;-90
2024/02/15 04:15:37;;;;;;;30.60;18.90;;;;;;;7.66;100.00;100847.77;213802;1288;139018;-88
2024/02/15 04:20:38;;;;;;;31.40;16.70;;;;;;;7.66;100.00;100846.46;213440;1287;140190;-90
2024/02/15 04:25:38;;;;;;;30.30;19.30;;;;;;;7.67;100.00;100844.30;213585;1287;138899;-90
2024/02/15 04:30:40;;;;;;;31.80;19.60;;;;;;;7.68;100.00;100835.88;215005;1288;140166;-90
2024/02/15 04:35:41;;;;;;;27.40;17.20;;;;;;;7.70;100.00;100838.74;214068;1289;139348;-89
2024/02/15 04:40:41;;;;;;;28.80;17.90;;;;;;;7.71;100.00;100842.83;213494;1285;140617;-90
2024/02/15 04:45:42;;;;;;;34.50;18.40;;;;;;;7.72;100.00;100847.10;213536;1286;139001;-90
2024/02/15 04:50:42;;;;;;;35.80;19.50;;;;;;;7.73;100.00;100846.27;213017;1286;140172;-91
2024/02/15 04:55:43;;;;;;;30.10;18.60;;;;;;;7.73;100.00;100847.59;213510;1290;139002;-90
2024/02/15 05:00:44;;;;;;;25.70;17.00;;;;;;;7.72;100.00;100850.14;213230;1286;140956;-89
2024/02/15 05:05:44;;;;;;;29.20;17.70;;;;;;;7.72;100.00;100848.64;214095;1285;138817;-87
2024/02/15 05:10:48;;;;;;;31.30;17.40;;;;;;;7.74;100.00;100852.70;213412;1290;140793;-89
2024/02/15 05:15:48;;;;;;;28.00;17.40;;;;;;;7.74;100.00;100853.67;213667;1287;138874;-89
2024/02/15 05:20:48;;;;;;;29.80;18.60;;;;;;;7.76;100.00;100850.96;213014;1287;140621;-89
2024/02/15 05:25:49;;;;;;;24.70;15.90;;;;;;;7.77;100.00;100856.48;213533;1287;139131;-90
2024/02/15 05:30:50;;;;;;;25.70;16.40;;;;;;;7.77;100.00;100854.23;214696;1290;140784;-88
2024/02/15 05:35:51;;;;;;;30.20;17.40;;;;;;;7.79;100.00;100855.61;214055;1286;138696;-88
2024/02/15 05:40:51;;;;;;;26.20;17.00;;;;;;;7.79;100.00;100856.71;213471;1285;140232;-90
2024/02/15 05:45:52;;;;;;;27.50;16.00;;;;;;;7.80;100.00;100857.60;214050;1285;138864;-88
2024/02/15 05:50:58;;;;;;;30.60;16.30;;;;;;;7.79;100.00;100850.69;213167;1287;140190;-88
2024/02/15 05:55:58;;;;;;;24.70;16.70;;;;;;;7.81;100.00;100848.55;213345;1287;138985;-88
2024/02/15 06:01:04;;;;;;;29.30;18.10;;;;;;;7.83;100.00;100847.04;212762;1292;140158;-88
2024/02/15 06:06:08;;;;;;;29.80;16.50;;;;;;;7.85;100.00;100850.20;213333;1290;99008;-88
2024/02/15 06:11:10;;;;;;;27.50;17.30;;;;;;;7.86;100.00;100852.59;213054;1287;140058;-88
2024/02/15 06:16:10;;;;;;;27.70;16.70;;;;;;;7.87;100.00;100855.60;213767;1288;139984;-88
2024/02/15 06:21:11;;;;;;;29.80;18.50;;;;;;;7.88;100.00;100861.42;213625;1285;140157;-88
2024/02/15 06:26:11;;;;;;;28.90;17.00;;;;;;;7.90;100.00;100867.67;214257;1286;139861;-89
2024/02/15 06:41:50;;;;;;;30.20;16.90;;;;;;;7.97;100.00;100882.52;213551;1285;140349;-89
2024/02/15 06:46:51;;;;;;;25.80;15.40;;;;;;;8.00;100.00;100883.15;214018;1285;139256;-89
2024/02/15 06:51:52;;;;;;;29.20;16.90;;;;;;;8.02;100.00;100882.27;213466;1285;140101;-88
2024/02/15 06:56:54;;;;;;;31.60;18.50;;;;;;;8.03;100.00;100881.52;213924;1285;140357;-89
2024/02/15 07:01:54;;;;;;;31.70;17.90;;;;;;;8.07;100.00;100883.96;213337;1285;140305;-89
2024/02/15 07:06:55;;;;;;;27.60;17.20;;;;;;;8.11;100.00;100879.37;214064;1285;106676;-86
2024/02/15 07:11:57;;;;;;;31.00;18.20;;;;;;;8.15;100.00;100878.02;213134;1285;140316;-89
2024/02/15 07:16:58;;;;;;;29.10;18.30;;;;;;;8.20;100.00;100882.45;213770;1285;138999;-90
2024/02/15 07:21:58;;;;;;;31.00;18.60;;;;;;;8.24;100.00;100888.71;213321;1287;140502;-88
2024/02/15 07:26:59;;;;;;;27.60;17.90;;;;;;;8.28;100.00;100896.42;213501;1286;138923;-88
2024/02/15 07:32:06;;;;;;;31.90;17.50;;;;;;;8.33;100.00;100898.20;213872;1287;140144;-88
2024/02/15 07:37:07;;;;;;;31.60;17.50;;;;;;;8.39;100.00;100897.19;213666;1287;139031;-88
2024/02/15 07:42:12;;;;;;;26.40;16.10;;;;;;;8.46;100.00;100894.63;212892;1286;140724;-87
2024/02/15 07:47:13;;;;;;;27.20;16.50;;;;;;;8.52;100.00;100898.42;213708;1285;138672;-87
2024/02/15 07:52:13;;;;;;;28.90;16.60;;;;;;;8.59;100.00;100901.48;213153;1287;142193;-88
2024/02/15 07:57:14;;;;;;;27.20;16.20;;;;;;;8.63;100.00;100901.67;213878;1290;139193;-87
2024/02/15 08:02:18;;;;;;;26.00;16.80;;;;;;;8.68;100.00;100903.31;213454;1285;140848;-87
2024/02/15 08:07:20;;;;;;;27.80;16.00;;;;;;;8.75;100.00;100904.35;213844;1285;139118;-88
2024/02/15 08:12:20;;;;;;;29.20;17.40;;;;;;;8.81;100.00;100909.61;213571;1285;141237;-86
2024/02/15 08:17:21;;;;;;;34.50;17.50;;;;;;;8.84;100.00;100909.42;214044;1285;138924;-85
2024/02/15 08:22:23;;;;;;;27.60;17.00;;;;;;;8.89;100.00;100905.04;213737;1285;140967;-86
2024/02/15 08:27:24;;;;;;;29.30;16.20;;;;;;;8.95;100.00;100905.96;214170;1285;159483;-87
2024/02/15 08:32:24;;;;;;;23.70;15.60;;;;;;;8.99;100.00;100909.45;213701;1287;140570;-89
2024/02/15 08:37:24;;;;;;;23.40;15.80;;;;;;;9.04;100.00;100910.83;213875;1286;139663;-88
2024/02/15 08:42:25;;;;;;;29.70;15.80;;;;;;;9.10;100.00;100913.62;213267;1286;140886;-88
2024/02/15 08:47:26;;;;;;;28.50;16.90;;;;;;;9.15;100.00;100913.36;213788;1285;138768;-87
2024/02/15 08:52:27;;;;;;;29.00;15.20;;;;;;;9.21;100.00;100916.02;213705;1285;139909;-88
2024/02/15 08:57:27;;;;;;;29.30;17.10;;;;;;;9.27;100.00;100912.40;214119;1285;140076;-89
2024/02/15 09:02:28;;;;;;;25.70;16.00;;;;;;;9.33;100.00;100909.88;213305;1285;140841;-89
2024/02/15 09:07:30;;;;;;;27.60;17.40;;;;;;;9.41;100.00;100916.65;213942;1285;138892;-88
2024/02/15 09:12:31;;;;;;;25.00;16.10;;;;;;;9.47;100.00;100912.64;213448;1287;139670;-88
2024/02/15 09:17:32;;;;;;;28.30;17.70;;;;;;;9.52;100.00;100910.56;213974;1285;139260;-89
2024/02/15 09:22:35;;;;;;;29.70;18.00;;;;;;;9.59;100.00;100909.53;213617;1285;141179;-88
2024/02/15 09:27:36;;;;;;;27.80;16.40;;;;;;;9.65;100.00;100907.86;214129;1285;139996;-91
2024/02/15 09:32:37;;;;;;;29.60;17.10;;;;;;;9.70;100.00;100902.09;213508;1285;139996;-89
2024/02/15 09:37:43;;;;;;;31.20;18.30;;;;;;;9.78;100.00;100909.19;214643;1286;138912;-89
2024/02/15 09:42:45;;;;;;;33.60;18.80;;;;;;;9.83;100.00;100912.91;213819;1289;141193;-89
2024/02/15 09:47:49;;;;;;;35.50;18.50;;;;;;;9.88;100.00;100912.63;213783;1291;139044;-89
2024/02/15 09:52:52;;;;;;;35.10;18.50;;;;;;;9.95;100.00;100911.98;214126;1289;141055;-88
2024/02/15 09:57:52;;;;;;;33.60;19.90;;;;;;;10.02;100.00;100911.91;214334;1285;139582;-87
2024/02/15 10:02:55;;;;;;;36.50;20.80;;;;;;;10.07;100.00;100920.77;214026;1285;140334;-90
2024/02/15 10:07:55;;;;;;;40.00;21.00;;;;;;;10.10;100.00;100910.61;214227;1285;139385;-87
2024/02/15 10:12:55;;;;;;;33.90;20.40;;;;;;;10.15;100.00;100909.45;213635;1285;140844;-86
2024/02/15 10:17:58;;;;;;;35.50;20.20;;;;;;;10.23;100.00;100909.16;214072;1285;138840;-89
2024/02/15 10:22:58;;;;;;;43.70;22.60;;;;;;;10.32;100.00;100906.81;213267;1286;140706;-88
2024/02/15 10:28:05;;;;;;;38.10;21.70;;;;;;;10.36;100.00;100908.38;213309;1286;139278;-89
2024/02/15 10:33:09;;;;;;;34.40;19.80;;;;;;;10.41;100.00;100902.59;213290;1290;140258;-89
2024/02/15 10:38:11;;;;;;;36.20;21.00;;;;;;;10.46;100.00;100904.17;214977;1289;139371;-89
2024/02/15 10:43:13;;;;;;;35.00;20.90;;;;;;;10.49;100.00;100900.54;213499;1285;140793;-89
2024/02/15 10:48:13;;;;;;;33.70;19.70;;;;;;;10.51;100.00;100902.91;214161;1286;99305;-90
2024/02/15 10:53:27;;;;;;;36.40;20.40;;;;;;;10.54;100.00;100905.67;213214;1286;140278;-88
2024/02/15 10:58:35;;;;;;;31.40;19.40;;;;;;;10.58;100.00;100905.34;213657;1286;139546;-92
2024/02/15 11:03:41;;;;;;;32.80;19.70;;;;;;;10.60;100.00;100900.02;213205;1286;140648;-89
2024/02/15 11:08:44;;;;;;;36.10;20.90;;;;;;;10.66;100.00;100895.96;213576;1288;139582;-89
2024/02/15 11:13:46;;;;;;;35.70;20.70;;;;;;;10.72;100.00;100893.33;213056;1287;140064;-92
2024/02/15 11:18:48;;;;;;;33.00;21.40;;;;;;;10.76;100.00;100890.02;213568;1286;112393;-89
2024/02/15 11:23:49;;;;;;;32.80;20.60;;;;;;;10.80;100.00;100885.05;213303;1286;140241;-89
2024/02/15 11:28:50;;;;;;;36.30;22.00;;;;;;;10.84;100.00;100879.61;213468;1287;139348;-91
2024/02/15 11:33:51;;;;;;;33.40;20.10;;;;;;;10.87;100.00;100878.09;213527;1287;141530;-87
2024/02/15 11:38:51;;;;;;;36.90;21.20;;;;;;;10.91;100.00;100879.27;216022;1285;139474;-90
2024/02/15 11:43:57;;;;;;;34.60;21.70;;;;;;;10.95;100.00;100875.86;213557;1289;140834;-89
2024/02/15 11:48:59;;;;;;;33.20;21.60;;;;;;;10.99;100.00;100871.85;213701;1287;111295;-91
2024/02/15 11:54:08;;;;;;;36.10;21.70;;;;;;;11.02;100.00;100868.81;213685;1285;140200;-89
2024/02/15 11:59:08;;;;;;;35.90;23.20;;;;;;;11.02;100.00;100858.83;214034;1285;140145;-91
2024/02/15 12:20:11;;;;;;;39.60;24.40;;;;;;;11.08;100.00;100863.51;213700;1289;140968;-91
2024/02/15 12:25:20;;;;;;;38.00;24.40;;;;;;;11.09;100.00;100867.45;214064;1285;139641;-88
2024/02/15 12:30:22;;;;;;;42.20;24.40;;;;;;;11.09;100.00;100869.80;214344;1284;141891;-89
2024/02/15 12:35:25;;;;;;;39.90;24.80;;;;;;;11.05;100.00;100869.73;213986;1286;139054;-89
2024/02/15 12:40:30;;;;;;;44.00;23.30;;;;;;;11.02;100.00;100864.73;214243;1286;140619;-87
2024/02/15 12:45:36;;;;;;;37.70;21.10;;;;;;;11.01;100.00;100857.95;213464;1290;139373;-91
2024/02/15 12:50:37;;;;;;;36.90;21.60;;;;;;;11.00;100.00;100858.39;213199;1286;141841;-91
2024/02/15 12:55:39;;;;;;;36.70;22.30;;;;;;;10.98;100.00;100854.90;213822;1286;139250;-91
2024/02/15 13:00:40;;;;;;;40.30;25.10;;;;;;;10.98;100.00;100856.01;213285;1287;141401;-93
2024/02/15 13:05:41;;;;;;;40.10;23.70;;;;;;;10.97;100.00;100851.58;213837;1287;139164;-92
2024/02/15 13:10:41;;;;;;;40.70;23.20;;;;;;;11.02;100.00;100852.14;213175;1286;140732;-91
2024/02/15 13:15:42;;;;;;;34.20;21.40;;;;;;;11.04;100.00;100850.52;213631;1287;139355;-90
2024/02/15 13:20:43;;;;;;;40.70;24.80;;;;;;;11.04;100.00;100853.98;213845;1287;140888;-91
2024/02/15 13:25:43;;;;;;;45.60;25.50;;;;;;;11.03;100.00;100847.98;214692;1284;140463;-92
2024/02/15 13:30:45;;;;;;;41.10;23.30;;;;;;;11.03;100.00;100846.02;213605;1288;140220;-90
2024/02/15 13:35:45;;;;;;;43.10;23.90;;;;;;;11.04;100.00;100848.63;214837;1285;139303;-89
2024/02/15 13:40:49;;;;;;;48.60;25.60;;;;;;;11.06;100.00;100850.54;215049;1286;140163;-89
2024/02/15 13:45:49;;;;;;;40.80;24.70;;;;;;;11.05;100.00;100846.20;215617;1285;139360;-89
2024/02/15 13:50:53;;;;;;;45.50;25.70;;;;;;;11.05;100.00;100853.36;214372;1288;142065;-90
2024/02/15 13:55:53;;;;;;;41.00;24.60;;;;;;;11.03;100.00;100845.18;213979;1284;139585;-90
2024/02/15 14:00:54;;;;;;;40.90;24.50;;;;;;;11.03;100.00;100843.50;213506;1287;140374;-91
2024/02/15 14:05:55;;;;;;;46.20;26.10;;;;;;;11.00;100.00;100843.54;213879;1287;139966;-92
2024/02/15 14:10:55;;;;;;;39.80;24.70;;;;;;;10.97;100.00;100842.46;213141;1290;140879;-90
2024/02/15 14:15:57;;;;;;;46.60;26.80;;;;;;;10.97;100.00;100844.50;213501;1287;139474;-92
2024/02/15 14:21:00;;;;;;;48.60;27.30;;;;;;;10.96;100.00;100848.52;213113;1287;140549;-91
2024/02/15 14:26:01;;;;;;;47.70;27.40;;;;;;;10.94;100.00;100853.29;213935;1288;233974;-89
2024/02/15 14:36:24;;;;;;;44.80;27.60;;;;;;;10.93;100.00;100854.59;213915;1287;98861;-91
2024/02/15 14:41:24;;;;;;;53.10;28.50;;;;;;;10.92;100.00;100854.66;213262;1287;140639;-89
2024/02/15 14:46:25;;;;;;;52.60;28.60;;;;;;;10.91;100.00;100861.41;213615;1286;138991;-91
2024/02/15 14:51:25;;;;;;;48.40;25.50;;;;;;;10.89;100.00;100863.65;213208;1290;140488;-92
2024/02/15 14:56:26;;;;;;;50.50;28.00;;;;;;;10.88;100.00;100870.79;213799;1286;139408;-92
2024/02/15 15:01:27;;;;;;;49.20;27.10;;;;;;;10.87;100.00;100871.55;213732;1285;141137;-92
2024/02/15 15:17:06;;;;;;;49.70;28.00;;;;;;;10.86;100.00;100868.55;214528;1285;139123;-90
2024/02/15 15:22:07;;;;;;;54.30;27.90;;;;;;;10.86;100.00;100874.69;213981;1288;140856;-92
2024/02/15 15:27:07;;;;;;;51.30;27.90;;;;;;;10.86;100.00;100877.77;214315;1289;139596;-91
2024/02/15 15:32:09;;;;;;;51.60;28.40;;;;;;;10.87;100.00;100876.36;213645;1286;140550;-93
2024/02/15 15:37:12;;;;;;;49.50;28.70;;;;;;;10.87;100.00;100874.56;215189;1285;141393;-93
2024/02/15 15:42:12;;;;;;;48.80;29.00;;;;;;;10.87;100.00;100872.36;214370;1284;140562;-92
2024/02/15 15:47:13;;;;;;;48.70;29.20;;;;;;;10.86;100.00;100872.34;214161;1287;139221;-92
2024/02/15 15:52:13;;;;;;;55.90;30.70;;;;;;;10.85;100.00;100867.98;214082;1285;142429;-92
2024/02/15 15:57:14;;;;;;;56.90;31.30;;;;;;;10.86;100.00;100870.05;215203;1285;139495;-92
2024/02/15 16:02:17;;;;;;;53.50;29.80;;;;;;;10.85;100.00;100868.70;213823;1286;141304;-93
2024/02/15 16:07:17;;;;;;;54.50;31.10;;;;;;;10.83;100.00;100865.67;213954;1287;139390;-92
2024/02/15 16:12:19;;;;;;;50.60;29.70;;;;;;;10.81;100.00;100865.71;213372;1287;140774;-92
2024/02/15 16:17:20;;;;;;;51.30;30.30;;;;;;;10.79;100.00;100862.70;214143;1285;139268;-92
2024/02/15 16:22:21;;;;;;;51.70;30.80;;;;;;;10.77;100.00;100864.00;213564;1285;140984;-91
2024/02/15 16:27:22;;;;;;;58.50;32.50;;;;;;;10.75;100.00;100865.39;213639;1290;139193;-91
2024/02/15 16:32:22;;;;;;;63.10;34.60;;;;;;;10.75;100.00;100870.34;213231;1287;140760;-92
2024/02/15 16:37:25;;;;;;;66.70;34.60;;;;;;;10.75;100.00;100869.86;213950;1287;139352;-92
2024/02/15 16:42:27;;;;;;;67.40;37.80;;;;;;;10.74;100.00;100875.43;213423;1287;140514;-92
2024/02/15 16:47:27;;;;;;;70.00;38.10;;;;;;;10.76;100.00;100883.64;213774;1287;139387;-93
2024/02/15 16:52:28;;;;;;;62.70;38.00;;;;;;;10.73;100.00;100883.52;213231;1290;141864;-92
2024/02/15 16:57:28;;;;;;;69.20;37.80;;;;;;;10.72;100.00;100893.81;213463;1292;139535;-94
2024/02/15 17:02:30;;;;;;;69.00;38.30;;;;;;;10.72;100.00;100894.66;213510;1286;140191;-92
2024/02/15 17:07:31;;;;;;;69.20;39.00;;;;;;;10.71;100.00;100901.09;213644;1287;140348;-92
2024/02/15 17:12:31;;;;;;;63.10;37.50;;;;;;;10.70;100.00;100896.36;213305;1288;140337;-92
2024/02/15 17:17:32;;;;;;;61.50;36.10;;;;;;;10.69;100.00;100897.20;213415;1292;140117;-92
2024/02/15 17:22:33;;;;;;;58.50;36.30;;;;;;;10.68;100.00;100895.85;213149;1287;142158;-92
2024/02/15 17:27:35;;;;;;;60.60;34.90;;;;;;;10.66;100.00;100904.39;213465;1287;140216;-92
2024/02/15 17:32:35;;;;;;;60.20;37.80;;;;;;;10.64;100.00;100900.66;213210;1285;142114;-93
2024/02/15 17:37:40;;;;;;;53.80;32.20;;;;;;;10.61;100.00;100900.44;214480;1285;139512;-92
2024/02/15 17:42:42;;;;;;;54.40;33.40;;;;;;;10.60;100.00;100899.70;213663;1288;141084;-92
2024/02/15 17:47:44;;;;;;;50.30;30.80;;;;;;;10.59;100.00;100904.33;214153;1285;139052;-91
2024/02/15 17:52:45;;;;;;;54.80;31.70;;;;;;;10.57;100.00;100906.11;213662;1288;141523;-92
2024/02/15 17:57:46;;;;;;;56.60;33.90;;;;;;;10.52;100.00;100901.06;214106;1290;139649;-91
2024/02/15 18:02:51;;;;;;;53.60;31.10;;;;;;;10.46;100.00;100906.52;213642;1289;140957;-92
2024/02/15 18:07:51;;;;;;;54.80;31.80;;;;;;;10.39;100.00;100904.90;214069;1286;139195;-91
2024/02/15 18:12:54;;;;;;;53.50;33.20;;;;;;;10.34;100.00;100898.75;213908;1285;142370;-91
2024/02/15 18:17:55;;;;;;;55.90;34.40;;;;;;;10.29;100.00;100894.17;214006;1286;139339;-92
2024/02/15 18:22:56;;;;;;;57.50;34.00;;;;;;;10.24;100.00;100892.97;213478;1285;140522;-92
2024/02/15 18:27:56;;;;;;;53.40;31.80;;;;;;;10.16;100.00;100891.64;214323;1285;139424;-91
2024/02/15 18:32:58;;;;;;;56.90;34.30;;;;;;;10.08;100.00;100897.52;213431;1287;140872;-92
2024/02/15 18:37:59;;;;;;;57.40;33.80;;;;;;;10.02;100.00;100896.27;214336;1288;139673;-91
2024/02/15 18:42:59;;;;;;;57.50;33.80;;;;;;;9.96;100.00;100892.38;213466;1288;140746;-91
2024/02/15 18:48:01;;;;;;;62.40;35.40;;;;;;;9.91;100.00;100892.49;214300;1290;138738;-91
2024/02/15 18:53:02;;;;;;;55.40;32.40;;;;;;;9.85;100.00;100888.91;213330;1289;140070;-91
2024/02/15 18:58:04;;;;;;;55.00;32.20;;;;;;;9.81;100.00;100889.39;214009;1289;138915;-91
2024/02/15 19:03:04;;;;;;;50.30;30.90;;;;;;;9.79;100.00;100890.12;213548;1285;139995;-93
2024/02/15 19:08:05;;;;;;;51.20;31.40;;;;;;;9.79;100.00;100891.29;213779;1287;139561;-89
2024/02/15 19:13:05;;;;;;;54.70;31.60;;;;;;;9.79;100.00;100888.23;213382;1286;140056;-91
2024/02/15 19:18:08;;;;;;;50.60;31.20;;;;;;;9.81;100.00;100886.38;213956;1288;109117;-91
2024/02/15 19:23:08;;;;;;;53.30;32.70;;;;;;;9.83;100.00;100885.73;213169;1290;140384;-91
2024/02/15 19:28:09;;;;;;;53.70;32.20;;;;;;;9.86;100.00;100885.16;213995;1285;139249;-93
2024/02/15 19:33:10;;;;;;;52.70;31.10;;;;;;;9.88;100.00;100876.63;213565;1289;139991;-93
2024/02/15 19:38:10;;;;;;;55.90;33.00;;;;;;;9.89;100.00;100875.49;214625;1288;140658;-91
2024/02/15 19:43:15;;;;;;;55.40;34.30;;;;;;;9.92;100.00;100873.97;213665;1286;141344;-92
2024/02/15 19:48:15;;;;;;;50.50;32.20;;;;;;;9.94;100.00;100872.45;214688;1289;111681;-91
2024/02/15 19:53:20;;;;;;;53.40;32.80;;;;;;;9.95;100.00;100871.77;213850;1286;140865;-91
2024/02/15 19:58:21;;;;;;;59.30;31.80;;;;;;;9.97;100.00;100868.04;214396;1291;139051;-90
2024/02/15 20:03:21;;;;;;;54.80;32.80;;;;;;;10.00;100.00;100875.16;213838;1286;139981;-91
2024/02/15 20:08:21;;;;;;;53.80;33.50;;;;;;;10.01;100.00;100878.49;214434;1286;139514;-92
2024/02/15 20:13:22;;;;;;;51.30;32.00;;;;;;;10.04;100.00;100884.77;213910;1286;140597;-91
2024/02/15 20:18:22;;;;;;;58.60;34.40;;;;;;;10.04;100.00;100880.94;214453;1289;98023;-90
2024/02/15 20:23:23;;;;;;;55.00;33.70;;;;;;;10.05;100.00;100878.52;213393;1288;140285;-90
2024/02/15 20:28:23;;;;;;;51.10;31.90;;;;;;;10.06;100.00;100879.87;214004;1290;185252;-90
2024/02/15 20:33:27;;;;;;;58.70;33.50;;;;;;;10.06;100.00;100880.42;213889;1286;140302;-91
2024/02/15 20:38:31;;;;;;;55.30;33.60;;;;;;;10.07;100.00;100877.14;214502;1289;139462;-91
2024/02/15 20:43:32;;;;;;;56.10;34.60;;;;;;;10.05;100.00;100874.98;213419;1289;140405;-90
2024/02/15 20:48:33;;;;;;;56.20;34.70;;;;;;;10.04;100.00;100875.27;213886;1286;111953;-89
2024/02/15 20:53:33;;;;;;;65.70;36.90;;;;;;;10.02;100.00;100876.86;213081;1290;140210;-90
2024/02/15 20:58:34;;;;;;;59.80;36.70;;;;;;;10.01;100.00;100879.75;213848;1291;139307;-90
2024/02/15 21:03:34;;;;;;;57.60;35.50;;;;;;;9.99;100.00;100881.05;213139;1291;140781;-90
2024/02/15 21:08:34;;;;;;;60.00;37.30;;;;;;;9.97;100.00;100875.41;213579;1289;140100;-91
2024/02/15 21:13:38;;;;;;;61.10;36.70;;;;;;;9.94;100.00;100872.70;213067;1286;139977;-91
2024/02/15 21:18:38;;;;;;;61.70;37.70;;;;;;;9.90;100.00;100867.80;214053;1289;110541;-92
2024/02/15 21:23:40;;;;;;;59.20;36.30;;;;;;;9.84;100.00;100863.51;213549;1289;140462;-91
2024/02/15 21:28:44;;;;;;;59.70;36.70;;;;;;;9.79;100.00;100864.83;213943;1286;138916;-90
2024/02/15 21:33:45;;;;;;;58.60;35.20;;;;;;;9.73;100.00;100866.19;213406;1288;141743;-91
2024/02/15 21:38:45;;;;;;;62.50;37.70;;;;;;;9.70;100.00;100867.61;214097;1289;140928;-90
2024/02/15 21:43:46;;;;;;;61.30;37.10;;;;;;;9.65;100.00;100867.75;213971;1285;140407;-91
2024/02/15 21:48:49;;;;;;;67.80;38.10;;;;;;;9.63;100.00;100864.78;214371;1286;99266;-90
2024/02/15 21:53:50;;;;;;;68.60;39.10;;;;;;;9.61;100.00;100858.39;214333;1289;139917;-91
2024/02/15 21:58:50;;;;;;;67.40;39.00;;;;;;;9.58;100.00;100856.68;214384;1289;139723;-91
2024/02/15 22:03:57;;;;;;;55.30;35.60;;;;;;;9.58;100.00;100856.67;213927;1285;140113;-92
2024/02/15 22:08:59;;;;;;;59.80;36.50;;;;;;;9.56;100.00;100856.08;214376;1289;139535;-91
2024/02/15 22:13:59;;;;;;;57.90;34.00;;;;;;;9.56;100.00;100856.31;213742;1286;139816;-92
2024/02/15 22:19:00;;;;;;;52.30;32.90;;;;;;;9.54;100.00;100857.92;214467;1285;99352;-92
2024/02/15 22:24:01;;;;;;;54.90;33.90;;;;;;;9.54;100.00;100856.75;213658;1286;141382;-92
2024/02/15 22:29:01;;;;;;;57.30;34.70;;;;;;;9.54;100.00;100855.58;214546;1288;138859;-92
2024/02/15 22:34:01;;;;;;;64.40;34.60;;;;;;;9.55;100.00;100855.51;214177;1286;139987;-93
2024/02/15 22:39:03;;;;;;;58.30;35.40;;;;;;;9.55;100.00;100852.54;214230;1286;138872;-89
2024/02/15 22:44:04;;;;;;;60.70;35.00;;;;;;;9.57;100.00;100851.23;213298;1287;140988;-88
2024/02/15 22:49:04;;;;;;;59.50;34.00;;;;;;;9.59;100.00;100852.14;213375;1289;139336;-87
2024/02/15 22:54:05;;;;;;;59.00;35.60;;;;;;;9.60;100.00;100848.00;213216;1289;140379;-87
2024/02/15 22:59:05;;;;;;;55.10;32.10;;;;;;;9.61;100.00;100848.96;213499;1286;138893;-87